createdAt,value
2022-11-02T00:00:28.232Z,7.07
2022-11-02T00:02:57.875Z,7.60
2022-11-02T00:05:26.775Z,7.25
2022-11-02T00:07:55.966Z,6.10
2022-11-02T00:10:25.011Z,5.82
2022-11-02T00:12:53.811Z,5.80
2022-11-02T00:15:23.923Z,5.82
2022-11-02T00:17:55.729Z,5.80
2022-11-02T00:20:24.177Z,5.95
2022-11-02T00:22:56.825Z,6.82
2022-11-02T00:25:30.734Z,6.70
2022-11-02T00:27:58.919Z,6.00
2022-11-02T00:30:27.139Z,6.63
2022-11-02T00:32:59.062Z,6.47
2022-11-02T00:35:27.742Z,7.13
2022-11-02T00:37:59.022Z,7.28
2022-11-02T00:40:27.278Z,6.90
2022-11-02T00:42:56.026Z,7.32
2022-11-02T00:45:24.178Z,7.80
2022-11-02T00:47:52.627Z,7.70
2022-11-02T00:50:20.897Z,8.07
2022-11-02T00:52:49.206Z,7.55
2022-11-02T00:55:18.203Z,6.75
2022-11-02T00:57:46.517Z,7.55
2022-11-02T01:00:15.443Z,10.27
2022-11-02T01:02:44.016Z,6.82
2022-11-02T01:05:12.690Z,7.90
2022-11-02T01:07:41.627Z,7.28
2022-11-02T01:10:11.048Z,7.97
2022-11-02T01:12:40.258Z,7.53
2022-11-02T01:15:12.464Z,9.27
2022-11-02T01:17:40.650Z,7.05
2022-11-02T01:20:09.862Z,8.18
2022-11-02T01:22:38.126Z,7.25
2022-11-02T01:25:07.950Z,7.82
2022-11-02T01:27:36.251Z,7.50
2022-11-02T01:30:06.082Z,7.18
2022-11-02T01:32:34.307Z,6.47
2022-11-02T01:35:02.940Z,8.52
2022-11-02T01:37:31.246Z,6.85
2022-11-02T01:39:59.455Z,7.10
2022-11-02T01:42:28.615Z,6.70
2022-11-02T01:44:57.741Z,7.55
2022-11-02T01:47:35.135Z,6.15
2022-11-02T01:50:16.780Z,5.72
2022-11-02T01:52:44.931Z,5.28
2022-11-02T01:55:16.604Z,5.47
2022-11-02T02:00:19.212Z,5.90
2022-11-02T02:03:14.961Z,6.55
2022-11-02T02:05:51.108Z,5.30
2022-11-02T02:08:23.978Z,5.68
2022-11-02T02:10:57.007Z,5.53
2022-11-02T02:13:28.582Z,5.30
2022-11-02T02:16:21.036Z,5.13
2022-11-02T02:18:55.691Z,5.03
2022-11-02T02:21:45.794Z,5.07
2022-11-02T02:24:45.066Z,4.95
2022-11-02T02:27:53.865Z,5.47
2022-11-02T02:30:22.188Z,5.72
2022-11-02T02:32:55.886Z,6.05
2022-11-02T02:35:59.032Z,6.28
2022-11-02T02:38:33.442Z,6.30
2022-11-02T02:41:16.099Z,5.97
2022-11-02T02:43:50.465Z,5.78
2022-11-02T02:46:42.854Z,5.90
2022-11-02T02:49:18.424Z,6.38
2022-11-02T02:51:47.682Z,6.53
2022-11-02T02:54:31.366Z,6.25
2022-11-02T02:59:44.220Z,6.35
2022-11-02T03:02:25.480Z,6.38
2022-11-02T03:04:54.370Z,6.30
2022-11-02T03:07:33.954Z,5.65
2022-11-02T03:10:25.753Z,5.68
2022-11-02T03:12:54.552Z,5.38
2022-11-02T03:15:32.335Z,5.95
2022-11-02T03:18:10.383Z,6.78
2022-11-02T03:20:58.610Z,6.90
2022-11-02T03:23:33.212Z,7.90
2022-11-02T03:26:15.333Z,6.88
2022-11-02T03:29:07.093Z,6.00
2022-11-02T03:32:00.204Z,5.60
2022-11-02T03:34:39.205Z,6.35
2022-11-02T03:37:17.325Z,6.70
2022-11-02T03:39:53.383Z,6.43
2022-11-02T03:42:26.665Z,5.95
2022-11-02T03:45:02.125Z,6.25
2022-11-02T03:47:34.192Z,5.60
2022-11-02T03:50:09.203Z,5.38
2022-11-02T03:52:41.935Z,5.40
2022-11-02T03:55:20.635Z,5.15
2022-11-02T03:57:53.869Z,5.50
2022-11-02T04:00:33.415Z,6.15
2022-11-02T04:03:09.088Z,5.53
2022-11-02T04:05:42.576Z,6.47
2022-11-02T04:08:42.457Z,5.75
2022-11-02T04:11:31.379Z,6.07
2022-11-02T04:14:24.711Z,8.23
2022-11-02T04:17:15.915Z,6.47
2022-11-02T04:19:51.543Z,6.45
2022-11-02T04:22:41.153Z,6.10
2022-11-02T04:25:15.764Z,5.95
2022-11-02T04:27:53.645Z,6.93
2022-11-02T04:30:26.581Z,6.15
2022-11-02T04:33:15.107Z,6.53
2022-11-02T04:35:50.675Z,6.32
2022-11-02T04:38:38.759Z,6.53
2022-11-02T04:41:37.775Z,7.35
2022-11-02T04:44:11.883Z,6.93
2022-11-02T04:46:42.111Z,7.40
2022-11-02T04:49:12.237Z,7.35
2022-11-02T04:51:44.548Z,7.60
2022-11-02T04:54:17.351Z,7.50
2022-11-02T04:56:46.086Z,7.38
2022-11-02T04:59:15.053Z,6.57
2022-11-02T05:01:43.626Z,7.28
2022-11-02T05:04:12.158Z,7.13
2022-11-02T05:06:41.314Z,6.72
2022-11-02T05:09:10.758Z,6.18
2022-11-02T05:11:42.960Z,8.07
2022-11-02T05:14:11.117Z,6.90
2022-11-02T05:16:39.280Z,7.32
2022-11-02T05:19:10.971Z,6.95
2022-11-02T05:21:40.725Z,6.25
2022-11-02T05:24:10.279Z,7.13
2022-11-02T05:26:38.459Z,7.10
2022-11-02T05:29:07.429Z,8.10
2022-11-02T05:31:35.935Z,7.43
2022-11-02T05:34:04.289Z,7.05
2022-11-02T05:36:32.531Z,6.70
2022-11-02T05:39:00.951Z,7.85
2022-11-02T05:41:29.412Z,6.45
2022-11-02T05:43:59.986Z,5.13
2022-11-02T05:46:30.134Z,5.70
2022-11-02T05:48:58.241Z,5.53
2022-11-02T05:51:26.490Z,5.70
2022-11-02T05:53:54.627Z,4.63
2022-11-02T05:56:25.263Z,6.05
2022-11-02T05:58:55.348Z,7.38
2022-11-02T06:01:23.665Z,6.97
2022-11-02T06:03:53.796Z,6.88
2022-11-02T06:06:22.679Z,7.68
2022-11-02T06:08:51.996Z,7.65
2022-11-02T06:11:20.406Z,6.85
2022-11-02T06:13:51.063Z,6.93
2022-11-02T06:16:22.949Z,6.38
2022-11-02T06:18:52.079Z,7.40
2022-11-02T06:21:20.238Z,7.30
2022-11-02T06:23:51.663Z,6.90
2022-11-02T06:26:20.998Z,7.88
2022-11-02T06:28:49.185Z,7.30
2022-11-02T06:31:17.555Z,7.80
2022-11-02T06:33:46.133Z,7.20
2022-11-02T06:36:14.340Z,6.88
2022-11-02T06:38:42.624Z,6.80
2022-11-02T06:41:10.886Z,7.47
2022-11-02T06:43:40.997Z,7.20
2022-11-02T06:46:09.464Z,7.25
2022-11-02T06:48:37.699Z,8.43
2022-11-02T06:51:06.526Z,8.60
2022-11-02T06:53:34.749Z,7.45
2022-11-02T06:56:03.182Z,8.07
2022-11-02T06:58:31.933Z,8.25
2022-11-02T07:01:07.663Z,6.95
2022-11-02T07:03:36.597Z,6.78
2022-11-02T07:06:08.427Z,7.28
2022-11-02T07:08:39.424Z,8.93
2022-11-02T07:11:07.715Z,9.52
2022-11-02T07:13:36.082Z,8.85
2022-11-02T07:16:04.381Z,8.65
2022-11-02T07:18:32.616Z,10.95
2022-11-02T07:21:01.616Z,10.45
2022-11-02T07:23:30.181Z,9.98
2022-11-02T07:25:58.407Z,9.30
2022-11-02T07:28:26.571Z,8.43
2022-11-02T07:30:55.502Z,8.95
2022-11-02T07:33:23.723Z,8.52
2022-11-02T07:35:52.404Z,8.00
2022-11-02T07:38:20.535Z,8.15
2022-11-02T07:40:52.835Z,8.63
2022-11-02T07:43:20.985Z,8.30
2022-11-02T07:46:15.100Z,8.23
2022-11-02T07:48:43.234Z,8.98
2022-11-02T07:51:11.385Z,9.15
2022-11-02T07:53:39.764Z,8.73
2022-11-02T07:56:08.335Z,9.68
2022-11-02T07:58:36.456Z,10.00
2022-11-02T08:01:05.056Z,9.07
2022-11-02T08:03:33.241Z,9.35
2022-11-02T08:06:04.707Z,9.45
2022-11-02T08:08:32.808Z,10.07
2022-11-02T08:11:06.474Z,9.90
2022-11-02T08:13:35.566Z,10.63
2022-11-02T08:16:04.232Z,9.93
2022-11-02T08:18:32.874Z,9.75
2022-11-02T08:21:01.273Z,11.40
2022-11-02T08:23:32.034Z,12.02
2022-11-02T08:26:00.584Z,11.27
2022-11-02T08:28:32.120Z,12.00
2022-11-02T08:31:00.334Z,12.05
2022-11-02T08:33:28.783Z,12.90
2022-11-02T08:36:03.854Z,14.25
2022-11-02T08:38:32.625Z,15.45
2022-11-02T08:41:00.783Z,13.52
2022-11-02T08:43:32.191Z,13.70
2022-11-02T08:46:14.357Z,14.65
2022-11-02T08:48:43.670Z,14.73
2022-11-02T08:51:12.167Z,15.40
2022-11-02T08:53:40.303Z,14.50
2022-11-02T08:56:08.633Z,13.88
2022-11-02T08:58:38.288Z,15.25
2022-11-02T09:01:06.620Z,15.38
2022-11-02T09:03:34.763Z,14.93
2022-11-02T09:06:03.128Z,15.57
2022-11-02T09:08:31.740Z,15.90
2022-11-02T09:11:01.835Z,17.70
2022-11-02T09:13:30.739Z,16.88
2022-11-02T09:16:00.218Z,17.92
2022-11-02T09:18:28.632Z,16.83
2022-11-02T09:20:57.122Z,17.00
2022-11-02T09:23:25.267Z,19.20
2022-11-02T09:25:53.808Z,18.75
2022-11-02T09:28:21.968Z,17.15
2022-11-02T09:30:50.343Z,16.85
2022-11-02T09:33:18.755Z,17.88
2022-11-02T09:35:49.000Z,17.73
2022-11-02T09:38:21.007Z,15.70
2022-11-02T09:40:59.963Z,18.02
2022-11-02T09:43:32.604Z,15.35
2022-11-02T09:46:17.938Z,17.05
2022-11-02T09:49:03.249Z,15.23
2022-11-02T09:51:38.977Z,14.90
2022-11-02T09:54:17.945Z,16.00
2022-11-02T09:56:47.734Z,16.30
2022-11-02T09:59:22.412Z,16.08
2022-11-02T10:01:56.766Z,16.42
2022-11-02T10:04:43.435Z,17.02
2022-11-02T10:07:36.432Z,16.38
2022-11-02T10:10:13.070Z,16.75
2022-11-02T10:13:15.299Z,17.42
2022-11-02T10:16:30.042Z,18.73
2022-11-02T10:18:58.241Z,17.63
2022-11-02T10:21:38.848Z,19.85
2022-11-02T10:24:48.341Z,21.05
2022-11-02T10:27:27.223Z,21.23
2022-11-02T10:29:59.289Z,22.83
2022-11-02T10:32:27.509Z,22.42
2022-11-02T10:34:59.340Z,21.88
2022-11-02T10:38:14.810Z,21.77
2022-11-02T10:41:01.544Z,22.55
2022-11-02T10:43:52.782Z,22.65
2022-11-02T10:47:02.626Z,22.42
2022-11-02T10:50:14.488Z,23.70
2022-11-02T10:52:47.774Z,22.92
2022-11-02T10:58:14.550Z,24.52
2022-11-02T11:00:44.615Z,24.13
2022-11-02T11:03:15.457Z,24.70
2022-11-02T11:06:03.685Z,24.23
2022-11-02T11:08:42.733Z,24.05
2022-11-02T11:11:21.606Z,23.98
2022-11-02T11:20:35.393Z,23.63
2022-11-02T11:25:40.096Z,18.85
2022-11-02T11:28:26.542Z,20.75
2022-11-02T11:31:17.468Z,20.35
2022-11-02T11:33:55.099Z,21.33
2022-11-02T11:36:31.230Z,21.25
2022-11-02T11:39:27.579Z,21.05
2022-11-02T11:41:56.467Z,21.05
2022-11-02T11:44:25.500Z,21.80
2022-11-02T11:46:59.178Z,22.83
2022-11-02T11:52:33.646Z,23.65
2022-11-02T11:55:20.386Z,22.00
2022-11-02T11:58:05.043Z,22.33
2022-11-02T12:00:34.514Z,22.40
2022-11-02T12:03:11.822Z,22.85
2022-11-02T12:06:01.280Z,22.48
2022-11-02T12:08:50.764Z,23.52
2022-11-02T12:11:33.773Z,22.50
2022-11-02T12:14:10.858Z,22.50
2022-11-02T12:17:14.544Z,23.27
2022-11-02T12:20:11.927Z,23.35
2022-11-02T12:22:52.149Z,24.08
2022-11-02T12:25:28.991Z,24.35
2022-11-02T12:28:12.609Z,25.65
2022-11-02T12:33:50.680Z,24.42
2022-11-02T12:36:34.210Z,25.35
2022-11-02T12:42:02.819Z,25.15
2022-11-02T12:44:56.759Z,27.83
2022-11-02T12:50:19.912Z,24.35
2022-11-02T12:53:21.542Z,25.60
2022-11-02T12:55:54.602Z,25.33
2022-11-02T12:58:27.401Z,27.83
2022-11-02T13:01:27.523Z,28.45
2022-11-02T13:04:28.097Z,27.10
2022-11-02T13:07:05.473Z,27.95
2022-11-02T13:09:51.496Z,26.77
2022-11-02T13:12:23.240Z,27.05
2022-11-02T13:14:54.692Z,26.52
2022-11-02T13:17:25.794Z,29.42
2022-11-02T13:20:14.007Z,28.27
2022-11-02T13:23:39.723Z,28.88
2022-11-02T13:26:19.119Z,29.70
2022-11-02T13:28:56.111Z,29.20
2022-11-02T13:31:53.458Z,28.60
2022-11-02T13:34:35.950Z,27.92
2022-11-02T13:37:19.203Z,29.35
2022-11-02T13:39:53.200Z,30.13
2022-11-02T13:42:32.336Z,30.30
2022-11-02T13:45:15.372Z,28.85
2022-11-02T13:48:05.985Z,31.55
2022-11-02T13:50:39.540Z,29.98
2022-11-02T13:55:46.239Z,29.10
2022-11-02T13:58:33.112Z,31.17
2022-11-02T14:01:08.998Z,30.63
2022-11-02T14:03:49.316Z,29.83
2022-11-02T14:06:19.488Z,31.45
2022-11-02T14:09:04.523Z,31.20
2022-11-02T14:11:40.242Z,31.17
2022-11-02T14:14:19.990Z,31.67
2022-11-02T14:16:51.375Z,33.38
2022-11-02T14:19:42.830Z,34.65
2022-11-02T14:22:16.556Z,32.58
2022-11-02T14:24:49.386Z,33.92
2022-11-02T14:27:19.092Z,34.10
2022-11-02T14:29:47.308Z,31.92
2022-11-02T14:32:21.050Z,33.67
2022-11-02T14:34:52.263Z,35.28
2022-11-02T14:38:03.072Z,34.10
2022-11-02T14:40:54.625Z,34.22
2022-11-02T14:43:44.460Z,33.95
2022-11-02T14:46:40.296Z,34.60
2022-11-02T14:49:20.926Z,34.08
2022-11-02T14:52:04.556Z,35.35
2022-11-02T14:55:01.907Z,35.47
2022-11-02T14:57:35.213Z,34.88
2022-11-02T15:00:17.454Z,35.28
2022-11-02T15:02:46.122Z,35.38
2022-11-02T15:05:40.581Z,36.42
2022-11-02T15:08:23.522Z,34.67
2022-11-02T15:10:51.746Z,38.13
2022-11-02T15:13:19.841Z,37.30
2022-11-02T15:15:50.969Z,33.78
2022-11-02T15:18:31.252Z,36.10
2022-11-02T15:21:11.637Z,33.88
2022-11-02T15:24:17.215Z,37.90
2022-11-02T15:26:57.636Z,35.00
2022-11-02T15:29:40.890Z,35.13
2022-11-02T15:32:22.390Z,36.95
2022-11-02T15:34:53.820Z,37.97
2022-11-02T15:37:50.482Z,37.63
2022-11-02T15:40:27.692Z,37.35
2022-11-02T15:43:13.906Z,37.67
2022-11-02T15:46:12.026Z,37.47
2022-11-02T15:49:09.267Z,38.25
2022-11-02T15:52:04.830Z,39.70
2022-11-02T15:55:10.529Z,38.55
2022-11-02T15:58:03.933Z,37.80
2022-11-02T16:00:32.281Z,38.47
2022-11-02T16:03:06.461Z,40.38
2022-11-02T16:05:44.140Z,38.67
2022-11-02T16:08:37.841Z,37.65
2022-11-02T16:11:19.389Z,36.78
2022-11-02T16:14:08.043Z,38.55
2022-11-02T16:16:50.137Z,39.10
2022-11-02T16:19:20.710Z,35.45
2022-11-02T16:21:54.073Z,35.83
2022-11-02T16:24:25.455Z,36.78
2022-11-02T16:26:54.366Z,35.13
2022-11-02T16:29:32.655Z,36.72
2022-11-02T16:32:02.372Z,37.17
2022-11-02T16:34:33.945Z,37.58
2022-11-02T16:37:10.075Z,37.25
2022-11-02T16:39:42.123Z,40.28
2022-11-02T16:42:21.479Z,39.17
2022-11-02T16:45:01.166Z,38.42
2022-11-02T16:47:38.664Z,37.72
2022-11-02T16:50:27.885Z,38.30
2022-11-02T16:53:02.490Z,37.80
2022-11-02T16:55:38.362Z,39.85
2022-11-02T16:58:09.373Z,40.22
2022-11-02T17:00:37.818Z,36.92
2022-11-02T17:03:14.489Z,35.70
2022-11-02T17:05:48.564Z,37.20
2022-11-02T17:08:37.837Z,37.17
2022-11-02T17:11:13.531Z,34.72
2022-11-02T17:13:56.487Z,38.35
2022-11-02T17:16:24.757Z,37.15
2022-11-02T17:18:52.905Z,37.17
2022-11-02T17:21:28.702Z,36.95
2022-11-02T17:23:58.854Z,35.88
2022-11-02T17:26:30.083Z,32.67
2022-11-02T17:29:27.815Z,34.30
2022-11-02T17:31:58.608Z,31.70
2022-11-02T17:34:27.610Z,31.83
2022-11-02T17:36:56.045Z,33.33
2022-11-02T17:39:24.177Z,34.60
2022-11-02T17:42:16.455Z,32.50
2022-11-02T17:44:47.726Z,31.85
2022-11-02T17:47:20.074Z,32.45
2022-11-02T17:49:48.226Z,33.10
2022-11-02T17:52:16.930Z,33.55
2022-11-02T17:54:45.121Z,31.50
2022-11-02T17:57:14.974Z,32.25
2022-11-02T17:59:43.112Z,31.58
2022-11-02T18:02:16.126Z,32.65
2022-11-02T18:07:17.646Z,34.58
2022-11-02T18:09:45.730Z,31.60
2022-11-02T18:12:14.967Z,34.72
2022-11-02T18:14:43.599Z,34.80
2022-11-02T18:17:11.724Z,35.10
2022-11-02T18:19:39.950Z,31.80
2022-11-02T18:22:11.998Z,33.75
2022-11-02T18:24:40.200Z,31.83
2022-11-02T18:27:08.418Z,32.97
2022-11-02T18:29:36.675Z,32.20
2022-11-02T18:32:04.971Z,33.70
2022-11-02T18:34:33.140Z,35.42
2022-11-02T18:37:01.362Z,36.05
2022-11-02T18:39:29.553Z,37.00
2022-11-02T18:41:57.802Z,36.20
2022-11-02T18:44:25.989Z,36.63
2022-11-02T18:46:55.066Z,39.22
2022-11-02T18:49:23.186Z,41.22
2022-11-02T18:51:51.582Z,38.53
2022-11-02T18:54:22.470Z,37.28
2022-11-02T18:56:50.601Z,39.08
2022-11-02T18:59:18.841Z,38.95
2022-11-02T19:01:47.278Z,37.92
2022-11-02T19:04:17.660Z,39.13
2022-11-02T19:07:04.475Z,39.95
2022-11-02T19:09:33.501Z,39.20
2022-11-02T19:12:01.775Z,39.13
2022-11-02T19:14:38.729Z,39.35
2022-11-02T19:17:08.260Z,39.83
2022-11-02T19:19:45.300Z,40.28
2022-11-02T19:22:14.906Z,39.10
2022-11-02T19:24:43.192Z,40.40
2022-11-02T19:27:17.905Z,40.05
2022-11-02T19:29:46.277Z,39.30
2022-11-02T19:32:14.620Z,41.65
2022-11-02T19:34:43.060Z,41.38
2022-11-02T19:37:11.731Z,39.30
2022-11-02T19:39:40.014Z,38.35
2022-11-02T19:42:08.271Z,38.63
2022-11-02T19:44:42.295Z,37.55
2022-11-02T19:47:11.150Z,37.67
2022-11-02T19:49:39.270Z,35.85
2022-11-02T19:52:07.397Z,38.28
2022-11-02T19:54:35.571Z,37.72
2022-11-02T19:57:03.730Z,38.28
2022-11-02T19:59:31.847Z,33.45
2022-11-02T20:02:00.063Z,31.35
2022-11-02T20:04:28.351Z,36.13
2022-11-02T20:06:56.510Z,38.13
2022-11-02T20:09:24.649Z,39.50
2022-11-02T20:11:52.820Z,37.08
2022-11-02T20:14:20.967Z,38.90
2022-11-02T20:16:58.589Z,38.22
2022-11-02T20:19:32.642Z,41.08
2022-11-02T20:22:00.868Z,38.75
2022-11-02T20:24:29.129Z,38.90
2022-11-02T20:27:02.678Z,37.45
2022-11-02T20:29:30.883Z,38.50
2022-11-02T20:31:59.052Z,37.08
2022-11-02T20:34:27.528Z,36.88
2022-11-02T20:36:55.724Z,38.47
2022-11-02T20:39:23.869Z,41.35
2022-11-02T20:41:56.513Z,42.50
2022-11-02T20:44:25.951Z,40.15
2022-11-02T20:46:54.337Z,37.42
2022-11-02T20:49:48.615Z,36.13
2022-11-02T20:52:12.130Z,35.67
2022-11-02T20:54:40.439Z,37.53
2022-11-02T20:57:09.521Z,37.00
2022-11-02T20:59:38.835Z,34.45
2022-11-02T21:02:09.416Z,35.97
2022-11-02T21:04:38.818Z,35.67
2022-11-02T21:07:09.015Z,37.38
2022-11-02T21:09:37.283Z,35.80
2022-11-02T21:12:25.341Z,36.53
2022-11-02T21:14:54.800Z,33.63
2022-11-02T21:17:23.419Z,30.08
2022-11-02T21:19:58.017Z,30.52
2022-11-02T21:22:37.391Z,29.50
2022-11-02T21:25:08.351Z,28.35
2022-11-02T21:27:36.522Z,28.77
2022-11-02T21:30:06.000Z,28.77
2022-11-02T21:32:34.292Z,28.80
2022-11-02T21:35:02.481Z,27.38
2022-11-02T21:37:31.628Z,27.27
2022-11-02T21:39:59.759Z,28.15
2022-11-02T21:42:30.221Z,26.23
2022-11-02T21:44:58.306Z,26.30
2022-11-02T21:47:29.333Z,26.02
2022-11-02T21:49:57.460Z,26.58
2022-11-02T21:52:25.587Z,27.33
2022-11-02T21:54:53.827Z,28.70
2022-11-02T21:57:23.111Z,29.65
2022-11-02T21:59:51.233Z,33.15
2022-11-02T22:02:19.552Z,38.05
2022-11-02T22:04:53.365Z,36.70
2022-11-02T22:07:24.215Z,38.40
2022-11-02T22:09:52.540Z,36.22
2022-11-02T22:12:52.305Z,35.28
2022-11-02T22:15:20.722Z,37.17
2022-11-02T22:17:50.299Z,36.42
2022-11-02T22:20:18.572Z,38.55
2022-11-02T22:22:46.739Z,38.05
2022-11-02T22:25:14.953Z,39.95
2022-11-02T22:27:43.103Z,38.22
2022-11-02T22:30:11.913Z,36.75
2022-11-02T22:32:40.021Z,35.60
2022-11-02T22:35:08.467Z,39.13
2022-11-02T22:37:55.383Z,38.03
2022-11-02T22:40:23.619Z,37.15
2022-11-02T22:42:57.328Z,37.50
2022-11-02T22:45:25.448Z,38.05
2022-11-02T22:47:53.575Z,36.55
2022-11-02T22:50:23.803Z,36.08
2022-11-02T22:52:55.700Z,36.33
2022-11-02T22:55:23.911Z,35.47
2022-11-02T22:57:58.786Z,36.97
2022-11-02T23:00:28.182Z,38.42
2022-11-02T23:02:56.359Z,37.17
2022-11-02T23:05:24.648Z,36.75
2022-11-02T23:07:52.776Z,34.85
2022-11-02T23:10:39.628Z,32.13
2022-11-02T23:13:08.159Z,32.67
2022-11-02T23:15:36.811Z,31.60
2022-11-02T23:18:05.017Z,30.20
2022-11-02T23:20:33.109Z,30.88
2022-11-02T23:23:19.967Z,30.40
2022-11-02T23:25:57.978Z,29.83
2022-11-02T23:28:44.835Z,27.95
2022-11-02T23:31:31.437Z,29.70
2022-11-02T23:33:59.539Z,29.38
2022-11-02T23:36:27.679Z,30.45
2022-11-02T23:39:14.189Z,31.30
2022-11-02T23:41:42.329Z,33.65
2022-11-02T23:44:14.450Z,34.47
2022-11-02T23:46:44.744Z,31.45
2022-11-02T23:49:13.655Z,32.70
2022-11-02T23:52:00.487Z,34.40
2022-11-02T23:54:47.090Z,31.85
2022-11-02T23:57:15.252Z,32.92
2022-11-02T23:59:43.418Z,34.70
